createdAt,value
2019-04-23T00:02:51.123Z,5.90
2019-04-23T00:05:33.604Z,6.07
2019-04-23T00:10:26.164Z,5.30
2019-04-23T00:15:21.570Z,6.43
2019-04-23T00:17:55.387Z,6.47
2019-04-23T00:20:25.823Z,6.07
2019-04-23T00:23:06.478Z,6.13
2019-04-23T00:25:54.128Z,6.60
2019-04-23T00:28:24.397Z,6.50
2019-04-23T00:31:09.681Z,6.37
2019-04-23T00:33:25.081Z,7.60
2019-04-23T00:36:02.647Z,6.40
2019-04-23T00:38:28.669Z,6.93
2019-04-23T00:40:51.416Z,6.60
2019-04-23T00:43:21.851Z,7.07
2019-04-23T00:46:08.115Z,7.53
2019-04-23T00:53:37.045Z,7.07
2019-04-23T00:58:38.157Z,7.57
2019-04-23T01:00:57.906Z,8.03
2019-04-23T01:03:25.695Z,7.40
2019-04-23T01:06:02.314Z,6.97
2019-04-23T01:08:33.277Z,8.30
2019-04-23T01:11:21.086Z,7.97
2019-04-23T01:20:56.881Z,7.93
2019-04-23T01:23:40.146Z,8.90
2019-04-23T01:26:26.521Z,10.07
2019-04-23T01:29:03.344Z,8.73
2019-04-23T01:31:33.256Z,9.23
2019-04-23T01:34:11.033Z,9.37
2019-04-23T01:36:32.987Z,9.63
2019-04-23T01:39:08.531Z,9.63
2019-04-23T01:41:33.716Z,9.80
2019-04-23T01:44:07.404Z,9.93
2019-04-23T01:46:43.864Z,9.87
2019-04-23T01:49:30.896Z,10.07
2019-04-23T01:54:12.418Z,10.97
2019-04-23T01:56:56.244Z,10.10
2019-04-23T02:01:53.181Z,10.57
2019-04-23T02:04:25.943Z,10.57
2019-04-23T02:06:45.792Z,11.67
2019-04-23T02:09:20.053Z,10.60
2019-04-23T02:11:50.608Z,11.50
2019-04-23T02:14:20.949Z,11.87
2019-04-23T02:16:49.940Z,11.37
2019-04-23T02:19:23.288Z,11.53
2019-04-23T02:22:03.755Z,11.87
2019-04-23T02:27:05.450Z,11.67
2019-04-23T02:29:54.077Z,12.00
2019-04-23T02:34:52.430Z,13.30
2019-04-23T02:37:22.657Z,12.77
2019-04-23T02:40:08.786Z,12.07
2019-04-23T02:42:28.773Z,13.00
2019-04-23T02:44:48.359Z,12.57
2019-04-23T02:49:59.265Z,13.40
2019-04-23T02:52:21.688Z,12.90
2019-04-23T02:55:31.453Z,13.17
2019-04-23T02:57:20.225Z,13.27
2019-04-23T03:02:35.025Z,13.20
2019-04-23T03:05:11.675Z,12.07
2019-04-23T03:07:33.331Z,13.43
2019-04-23T03:10:00.109Z,13.80
2019-04-23T03:15:15.059Z,13.93
2019-04-23T03:17:59.237Z,14.10
2019-04-23T03:20:32.588Z,13.33
2019-04-23T03:23:13.880Z,14.07
2019-04-23T03:25:37.525Z,13.70
2019-04-23T03:28:25.275Z,14.53
2019-04-23T03:34:13.629Z,14.70
2019-04-23T03:38:30.169Z,15.10
2019-04-23T03:40:57.207Z,14.83
2019-04-23T03:50:49.309Z,15.30
2019-04-23T03:53:34.370Z,15.90
2019-04-23T03:56:05.655Z,14.70
2019-04-23T04:04:10.749Z,15.83
2019-04-23T04:06:11.560Z,14.73
2019-04-23T04:11:11.206Z,15.20
2019-04-23T04:16:07.508Z,15.73
2019-04-23T04:21:18.502Z,15.67
2019-04-23T04:23:45.384Z,16.83
2019-04-23T04:26:14.321Z,15.07
2019-04-23T04:31:16.267Z,15.80
2019-04-23T04:36:28.154Z,16.00
2019-04-23T04:44:05.465Z,15.87
2019-04-23T04:46:32.545Z,15.90
2019-04-23T04:49:01.639Z,15.10
2019-04-23T04:51:31.425Z,15.73
2019-04-23T04:54:08.325Z,14.57
2019-04-23T04:58:52.894Z,16.40
2019-04-23T05:01:36.729Z,15.63
2019-04-23T05:03:45.880Z,16.27
2019-04-23T05:09:04.239Z,15.10
2019-04-23T05:11:35.102Z,15.53
2019-04-23T05:14:04.290Z,15.63
2019-04-23T05:16:28.690Z,15.97
2019-04-23T05:19:22.970Z,15.60
2019-04-23T05:21:46.867Z,15.90
2019-04-23T05:24:08.255Z,14.63
2019-04-23T05:26:37.523Z,15.13
2019-04-23T05:29:23.294Z,15.60
2019-04-23T05:31:42.158Z,15.80
2019-04-23T05:34:12.888Z,14.90
2019-04-23T05:36:45.506Z,13.80
2019-04-23T05:41:50.027Z,14.37
2019-04-23T05:44:21.173Z,15.10
2019-04-23T05:46:44.989Z,14.53
2019-04-23T05:49:22.318Z,14.83
2019-04-23T05:51:55.497Z,14.47
2019-04-23T05:54:26.659Z,13.90
2019-04-23T05:56:54.161Z,14.50
2019-04-23T05:59:26.237Z,12.50
2019-04-23T06:01:57.409Z,12.80
2019-04-23T06:04:30.656Z,12.53
2019-04-23T06:07:33.323Z,12.40
2019-04-23T06:14:36.173Z,13.33
2019-04-23T06:17:03.205Z,12.37
2019-04-23T06:19:24.615Z,12.63
2019-04-23T06:24:39.809Z,12.77
2019-04-23T06:27:06.786Z,13.20
2019-04-23T06:29:49.869Z,12.13
2019-04-23T06:32:06.137Z,12.27
2019-04-23T06:34:53.021Z,12.00
2019-04-23T06:37:14.608Z,12.07
2019-04-23T06:39:45.939Z,12.00
2019-04-23T06:42:23.518Z,11.57
2019-04-23T06:44:51.001Z,12.07
2019-04-23T06:47:29.344Z,11.70
2019-04-23T06:49:53.034Z,12.03
2019-04-23T06:54:55.316Z,11.70
2019-04-23T06:57:22.278Z,12.23
2019-04-23T06:59:54.147Z,11.28
2019-04-23T07:02:25.897Z,11.03
2019-04-23T07:09:58.281Z,11.53
2019-04-23T07:12:29.750Z,11.33
2019-04-23T07:15:13.367Z,12.00
2019-04-23T07:17:46.599Z,12.37
2019-04-23T07:20:04.245Z,12.03
2019-04-23T07:22:49.832Z,12.65
2019-04-23T07:25:11.869Z,13.10
2019-04-23T07:27:29.693Z,11.78
2019-04-23T07:30:23.729Z,12.60
2019-04-23T07:32:40.803Z,11.83
2019-04-23T07:35:45.362Z,12.50
2019-04-23T07:37:47.556Z,12.63
2019-04-23T07:43:03.167Z,12.07
2019-04-23T07:48:13.714Z,11.95
2019-04-23T07:50:49.380Z,11.60
2019-04-23T07:53:25.588Z,12.25
2019-04-23T07:55:56.428Z,12.45
2019-04-23T08:01:06.964Z,12.40
2019-04-23T08:03:22.610Z,11.70
2019-04-23T08:06:05.917Z,12.05
2019-04-23T08:08:24.509Z,12.25
2019-04-23T08:13:47.773Z,11.83
2019-04-23T08:16:25.960Z,11.53
2019-04-23T08:18:49.488Z,12.23
2019-04-23T08:21:14.673Z,11.73
2019-04-23T08:26:38.018Z,11.80
2019-04-23T08:31:43.911Z,12.03
2019-04-23T08:36:49.924Z,12.00
2019-04-23T08:39:21.568Z,11.93
2019-04-23T08:44:30.236Z,11.73
2019-04-23T08:47:08.761Z,11.25
2019-04-23T08:49:35.833Z,11.40
2019-04-23T08:52:10.466Z,12.07
2019-04-23T08:54:42.940Z,11.10
2019-04-23T08:57:10.430Z,12.43
2019-04-23T08:59:42.385Z,11.30
2019-04-23T09:04:42.157Z,11.30
2019-04-23T09:07:16.800Z,11.80
2019-04-23T09:09:45.922Z,10.85
2019-04-23T09:12:10.352Z,11.18
2019-04-23T09:14:38.611Z,10.88
2019-04-23T09:17:16.756Z,11.03
2019-04-23T09:19:53.369Z,11.90
2019-04-23T09:22:21.988Z,10.60
2019-04-23T09:24:48.754Z,11.75
2019-04-23T09:27:22.698Z,10.53
2019-04-23T09:29:57.973Z,11.10
2019-04-23T09:32:36.328Z,11.85
2019-04-23T09:35:10.864Z,10.53
2019-04-23T09:40:27.671Z,11.15
2019-04-23T09:42:57.291Z,12.05
2019-04-23T09:45:37.075Z,10.88
2019-04-23T09:48:17.457Z,11.73
2019-04-23T09:50:41.927Z,11.25
2019-04-23T09:53:17.639Z,12.07
2019-04-23T09:58:22.327Z,12.05
2019-04-23T10:03:09.150Z,11.25
2019-04-23T10:05:39.144Z,10.95
2019-04-23T10:08:05.052Z,11.05
2019-04-23T10:10:28.135Z,11.48
2019-04-23T10:12:58.127Z,11.12
2019-04-23T10:15:34.393Z,11.48
2019-04-23T10:18:00.279Z,11.53
2019-04-23T10:20:30.823Z,11.33
2019-04-23T10:23:02.254Z,11.45
2019-04-23T10:25:31.984Z,11.80
2019-04-23T10:28:06.620Z,11.35
2019-04-23T10:30:33.360Z,12.18
2019-04-23T10:33:03.330Z,11.60
2019-04-23T10:35:41.340Z,11.95
2019-04-23T10:38:09.985Z,11.33
2019-04-23T10:40:38.892Z,11.73
2019-04-23T10:43:07.393Z,11.60
2019-04-23T10:45:53.148Z,11.05
2019-04-23T10:49:00.693Z,11.12
2019-04-23T10:51:34.077Z,11.50
2019-04-23T10:54:26.392Z,11.80
2019-04-23T10:56:53.196Z,10.95
2019-04-23T10:59:34.985Z,11.35
2019-04-23T11:02:20.099Z,11.05
2019-04-23T11:04:47.552Z,11.50
2019-04-23T11:09:53.066Z,11.15
2019-04-23T11:12:24.226Z,12.58
2019-04-23T11:14:53.673Z,11.60
2019-04-23T11:17:27.058Z,11.25
2019-04-23T11:22:38.956Z,11.45
2019-04-23T11:24:50.629Z,11.88
2019-04-23T11:27:26.153Z,11.28
2019-04-23T11:30:05.630Z,9.80
2019-04-23T11:37:41.017Z,12.18
2019-04-23T11:42:26.224Z,11.65
2019-04-23T11:52:52.058Z,10.23
2019-04-23T11:55:18.152Z,10.25
2019-04-23T11:57:41.128Z,10.20
2019-04-23T12:00:05.929Z,10.93
2019-04-23T12:03:35.555Z,10.85
2019-04-23T12:05:35.318Z,10.48
2019-04-23T12:08:09.312Z,10.55
2019-04-23T12:10:47.866Z,10.28
2019-04-23T12:13:20.432Z,11.45
2019-04-23T12:15:46.349Z,9.88
2019-04-23T12:18:25.456Z,10.45
2019-04-23T12:20:51.100Z,11.48
2019-04-23T12:23:31.911Z,9.55
2019-04-23T12:26:07.324Z,9.90
2019-04-23T12:28:30.106Z,10.58
2019-04-23T12:33:39.085Z,11.85
2019-04-23T12:36:05.449Z,9.98
2019-04-23T12:38:30.114Z,10.85
2019-04-23T12:41:10.721Z,9.83
2019-04-23T12:43:29.047Z,9.93
2019-04-23T12:45:55.722Z,11.22
2019-04-23T12:48:46.758Z,11.08
2019-04-23T12:51:08.812Z,10.45
2019-04-23T12:53:34.738Z,10.30
2019-04-23T12:56:08.972Z,10.05
2019-04-23T12:58:34.117Z,8.63
2019-04-23T13:01:13.508Z,10.80
2019-04-23T13:03:39.290Z,10.63
2019-04-23T13:06:14.867Z,10.08
2019-04-23T13:08:44.245Z,10.20
2019-04-23T13:11:15.358Z,10.38
2019-04-23T13:16:28.091Z,11.12
2019-04-23T13:18:50.681Z,10.08
2019-04-23T13:21:46.724Z,10.05
2019-04-23T13:23:55.574Z,9.90
2019-04-23T13:26:24.785Z,9.95
2019-04-23T13:29:03.171Z,10.25
2019-04-23T13:31:30.070Z,10.68
2019-04-23T13:33:58.641Z,10.82
2019-04-23T13:36:36.332Z,9.95
2019-04-23T13:39:02.382Z,9.70
2019-04-23T13:41:31.355Z,10.35
2019-04-23T13:44:10.024Z,10.93
2019-04-23T13:46:36.577Z,10.20
2019-04-23T13:49:11.456Z,9.80
2019-04-23T13:51:39.781Z,9.50
2019-04-23T13:54:17.324Z,9.90
2019-04-23T13:57:13.100Z,10.85
2019-04-23T13:59:37.809Z,9.45
2019-04-23T14:01:41.426Z,9.90
2019-04-23T14:04:38.892Z,10.10
2019-04-23T14:06:57.405Z,9.20
2019-04-23T14:09:43.049Z,10.10
2019-04-23T14:11:58.366Z,10.18
2019-04-23T14:14:41.842Z,9.75
2019-04-23T14:17:18.691Z,9.83
2019-04-23T14:19:34.336Z,9.95
2019-04-23T14:25:04.865Z,10.90
2019-04-23T14:27:14.946Z,10.05
2019-04-23T14:29:48.314Z,10.20
2019-04-23T14:32:20.857Z,9.73
2019-04-23T14:34:58.525Z,9.65
2019-04-23T14:39:45.698Z,10.58
2019-04-23T14:42:35.209Z,10.13
2019-04-23T14:45:07.817Z,10.55
2019-04-23T14:55:51.083Z,10.72
2019-04-23T14:58:17.505Z,11.20
2019-04-23T15:03:19.941Z,10.70
2019-04-23T15:05:56.208Z,11.30
2019-04-23T15:08:25.086Z,11.38
2019-04-23T15:10:57.067Z,11.08
2019-04-23T15:13:22.958Z,12.07
2019-04-23T15:15:55.075Z,11.73
2019-04-23T15:23:51.420Z,10.70
2019-04-23T15:27:10.368Z,11.90
2019-04-23T15:28:21.498Z,12.10
2019-04-23T15:31:23.513Z,12.40
2019-04-23T15:33:54.398Z,12.85
2019-04-23T15:38:53.781Z,12.20
2019-04-23T15:41:23.710Z,12.45
2019-04-23T15:44:02.014Z,12.18
2019-04-23T15:46:25.339Z,11.80
2019-04-23T15:49:01.216Z,12.43
2019-04-23T15:53:56.404Z,12.78
2019-04-23T15:56:37.096Z,11.88
2019-04-23T16:01:34.645Z,11.97
2019-04-23T16:03:33.333Z,12.33
2019-04-23T16:06:04.703Z,13.08
2019-04-23T16:11:39.703Z,12.65
2019-04-23T16:14:17.345Z,11.70
2019-04-23T16:16:37.391Z,12.75
2019-04-23T16:24:17.589Z,13.83
2019-04-23T16:29:32.794Z,12.75
2019-04-23T16:32:04.221Z,13.00
2019-04-23T16:34:34.049Z,12.80
2019-04-23T16:37:08.512Z,13.58
2019-04-23T16:39:37.763Z,12.33
2019-04-23T16:42:17.622Z,14.38
2019-04-23T16:47:46.730Z,13.28
2019-04-23T16:50:18.281Z,13.08
2019-04-23T16:52:42.413Z,13.83
2019-04-23T16:55:34.500Z,12.58
2019-04-23T17:02:59.891Z,13.65
2019-04-23T17:08:11.970Z,13.70
2019-04-23T17:10:36.661Z,15.00
2019-04-23T17:12:58.011Z,13.78
2019-04-23T17:15:27.422Z,14.65
2019-04-23T17:17:56.158Z,14.90
2019-04-23T17:20:30.709Z,15.58
2019-04-23T17:25:26.441Z,14.93
2019-04-23T17:28:05.595Z,15.25
2019-04-23T17:30:32.472Z,14.65
2019-04-23T17:36:07.406Z,15.55
2019-04-23T17:41:08.248Z,15.08
2019-04-23T17:43:42.353Z,15.58
2019-04-23T17:46:05.046Z,15.72
2019-04-23T17:48:38.076Z,15.50
2019-04-23T17:51:15.955Z,16.25
2019-04-23T17:54:04.943Z,15.35
2019-04-23T17:56:35.946Z,14.07
2019-04-23T18:01:22.166Z,15.45
2019-04-23T18:24:16.738Z,15.38
2019-04-23T18:27:02.383Z,16.00
2019-04-23T18:29:43.877Z,15.65
2019-04-23T18:32:29.131Z,16.50
2019-04-23T18:39:57.631Z,16.75
2019-04-23T18:42:33.007Z,16.57
2019-04-23T18:44:57.379Z,16.85
2019-04-23T18:47:45.539Z,16.48
2019-04-23T18:50:03.885Z,16.25
2019-04-23T18:52:40.874Z,17.45
2019-04-23T18:55:04.508Z,16.00
2019-04-23T18:57:41.783Z,17.05
2019-04-23T19:00:06.001Z,16.87
2019-04-23T19:05:41.285Z,16.20
2019-04-23T19:10:48.654Z,17.12
2019-04-23T19:13:22.438Z,17.23
2019-04-23T19:18:21.003Z,18.35
2019-04-23T19:23:27.292Z,17.80
2019-04-23T19:25:51.849Z,17.98
2019-04-23T19:28:44.846Z,18.23
2019-04-23T19:31:14.720Z,17.55
2019-04-23T19:33:38.287Z,19.05
2019-04-23T19:36:14.594Z,19.05
2019-04-23T19:38:35.097Z,17.20
2019-04-23T19:41:02.108Z,17.47
2019-04-23T19:46:15.603Z,18.37
2019-04-23T19:48:57.812Z,18.77
2019-04-23T19:51:08.664Z,18.15
2019-04-23T19:58:44.882Z,18.77
2019-04-23T20:03:49.575Z,19.17
2019-04-23T20:06:18.954Z,17.97
2019-04-23T20:09:21.978Z,19.00
2019-04-23T20:16:30.566Z,18.97
2019-04-23T20:21:28.314Z,18.00
2019-04-23T20:39:21.476Z,20.07
2019-04-23T20:42:07.753Z,19.20
2019-04-23T20:44:37.347Z,19.07
2019-04-23T20:54:43.168Z,19.30
2019-04-23T20:57:31.616Z,18.83
2019-04-23T20:59:56.711Z,18.83
2019-04-23T21:02:54.670Z,18.77
2019-04-23T21:07:49.203Z,19.67
2019-04-23T21:10:22.117Z,19.47
2019-04-23T21:17:55.921Z,19.73
2019-04-23T21:22:51.452Z,20.90
2019-04-23T21:25:14.410Z,19.97
2019-04-23T21:27:57.246Z,20.67
2019-04-23T21:30:58.508Z,20.17
2019-04-23T21:33:11.669Z,21.13
2019-04-23T21:36:12.506Z,20.67
2019-04-23T21:38:46.316Z,19.23
2019-04-23T21:41:17.529Z,20.70
2019-04-23T21:46:20.456Z,19.50
2019-04-23T21:49:09.174Z,20.30
2019-04-23T21:53:51.625Z,19.57
2019-04-23T22:06:43.296Z,19.53
2019-04-23T22:09:14.677Z,19.60
2019-04-23T22:14:13.076Z,19.50
2019-04-23T22:16:57.902Z,20.03
2019-04-23T22:21:47.440Z,20.00
2019-04-23T22:24:21.233Z,19.67
2019-04-23T22:26:37.981Z,20.17
2019-04-23T22:31:47.137Z,19.90
2019-04-23T22:34:17.174Z,19.27
2019-04-23T22:36:55.147Z,19.00
2019-04-23T22:39:16.499Z,19.70
2019-04-23T22:41:59.017Z,20.27
2019-04-23T22:44:22.444Z,19.67
2019-04-23T22:46:59.638Z,19.10
2019-04-23T22:49:36.401Z,20.73
2019-04-23T22:52:08.770Z,19.97
2019-04-23T22:54:24.050Z,19.10
2019-04-23T22:57:01.298Z,19.30
2019-04-23T22:59:54.318Z,20.40
2019-04-23T23:02:26.993Z,19.77
2019-04-23T23:05:12.187Z,20.17
2019-04-23T23:07:33.112Z,19.43
2019-04-23T23:10:03.997Z,21.07
2019-04-23T23:12:31.774Z,19.77
2019-04-23T23:15:02.798Z,20.40
2019-04-23T23:17:33.171Z,19.13
2019-04-23T23:20:18.133Z,20.57
2019-04-23T23:22:39.471Z,20.43
2019-04-23T23:27:46.193Z,19.57
2019-04-23T23:30:08.846Z,20.00
2019-04-23T23:32:40.862Z,19.43
2019-04-23T23:37:44.244Z,18.70
2019-04-23T23:42:59.877Z,19.00
2019-04-23T23:45:21.584Z,19.90
2019-04-23T23:47:43.166Z,20.30
2019-04-23T23:50:35.136Z,20.13
2019-04-23T23:53:00.194Z,19.43
2019-04-23T23:57:50.920Z,20.17
